createdAt,value
2018-09-12T00:01:01.709Z,1.00
2018-09-12T00:03:29.885Z,1.10
2018-09-12T00:05:58.076Z,0.77
2018-09-12T00:08:26.237Z,0.60
2018-09-12T00:10:54.433Z,0.60
2018-09-12T00:13:22.652Z,0.70
2018-09-12T00:15:51.009Z,1.23
2018-09-12T00:18:19.235Z,0.70
2018-09-12T00:20:47.432Z,1.03
2018-09-12T00:23:15.660Z,1.07
2018-09-12T00:25:43.845Z,0.90
2018-09-12T00:28:12.517Z,1.03
2018-09-12T00:30:40.960Z,0.70
2018-09-12T00:33:09.340Z,1.00
2018-09-12T00:35:37.600Z,0.97
2018-09-12T00:38:05.812Z,0.70
2018-09-12T00:40:33.988Z,0.80
2018-09-12T00:43:02.216Z,0.90
2018-09-12T00:45:30.477Z,0.70
2018-09-12T00:47:58.712Z,0.90
2018-09-12T00:50:26.875Z,0.60
2018-09-12T00:52:55.068Z,0.80
2018-09-12T00:55:23.280Z,0.70
2018-09-12T00:57:51.519Z,0.90
2018-09-12T01:00:19.705Z,1.07
2018-09-12T01:02:47.864Z,0.80
2018-09-12T01:05:16.155Z,0.80
2018-09-12T01:07:44.324Z,0.60
2018-09-12T01:10:12.517Z,1.07
2018-09-12T01:12:40.721Z,0.80
2018-09-12T01:15:08.899Z,1.73
2018-09-12T01:17:37.059Z,1.40
2018-09-12T01:20:05.266Z,0.93
2018-09-12T01:22:33.444Z,1.00
2018-09-12T01:25:01.633Z,1.43
2018-09-12T01:27:29.805Z,1.30
2018-09-12T01:29:57.991Z,1.10
2018-09-12T01:32:26.174Z,0.83
2018-09-12T01:34:54.598Z,0.73
2018-09-12T01:37:22.780Z,0.73
2018-09-12T01:39:50.969Z,0.70
2018-09-12T01:42:19.144Z,0.87
2018-09-12T01:44:47.336Z,0.93
2018-09-12T01:47:15.588Z,1.57
2018-09-12T01:49:43.773Z,1.17
2018-09-12T01:52:12.023Z,1.47
2018-09-12T01:54:40.713Z,0.87
2018-09-12T01:57:08.900Z,1.03
2018-09-12T01:59:37.081Z,1.00
2018-09-12T02:02:05.284Z,0.87
2018-09-12T02:04:33.456Z,1.10
2018-09-12T02:07:01.644Z,1.03
2018-09-12T02:09:29.816Z,0.80
2018-09-12T02:11:58.129Z,1.27
2018-09-12T02:14:26.305Z,1.37
2018-09-12T02:16:54.501Z,1.00
2018-09-12T02:19:22.670Z,1.17
2018-09-12T02:21:50.858Z,1.00
2018-09-12T02:24:19.032Z,0.97
2018-09-12T02:26:47.244Z,0.80
2018-09-12T02:29:15.412Z,0.70
2018-09-12T02:31:43.616Z,0.90
2018-09-12T02:34:11.793Z,2.07
2018-09-12T02:36:40.017Z,0.80
2018-09-12T02:39:08.911Z,1.10
2018-09-12T02:41:37.215Z,1.03
2018-09-12T02:44:05.551Z,1.30
2018-09-12T02:46:34.182Z,1.13
2018-09-12T02:49:02.374Z,1.23
2018-09-12T02:51:30.640Z,1.10
2018-09-12T02:53:58.946Z,1.23
2018-09-12T02:56:27.135Z,1.17
2018-09-12T02:58:55.404Z,1.03
2018-09-12T03:01:23.716Z,0.80
2018-09-12T03:03:51.905Z,0.80
2018-09-12T03:06:20.114Z,1.10
2018-09-12T03:11:27.516Z,1.10
2018-09-12T03:13:55.728Z,2.13
2018-09-12T03:16:23.985Z,1.03
2018-09-12T03:18:52.258Z,1.03
2018-09-12T03:21:20.702Z,0.70
2018-09-12T03:23:49.287Z,0.87
2018-09-12T03:26:17.680Z,1.03
2018-09-12T03:28:46.165Z,1.33
2018-09-12T03:31:14.417Z,0.90
2018-09-12T03:33:42.661Z,0.70
2018-09-12T03:36:10.860Z,0.80
2018-09-12T03:38:39.040Z,1.60
2018-09-12T03:41:07.252Z,1.83
2018-09-12T03:43:35.593Z,1.30
2018-09-12T03:46:03.845Z,1.13
2018-09-12T03:48:32.632Z,1.10
2018-09-12T03:51:00.896Z,0.93
2018-09-12T03:53:29.104Z,1.10
2018-09-12T03:55:57.304Z,1.33
2018-09-12T03:58:25.570Z,1.17
2018-09-12T04:00:53.761Z,1.20
2018-09-12T04:03:21.982Z,0.80
2018-09-12T04:05:50.161Z,1.10
2018-09-12T04:08:18.477Z,1.20
2018-09-12T04:10:46.648Z,0.83
2018-09-12T04:13:14.914Z,0.70
2018-09-12T04:15:43.096Z,1.10
2018-09-12T04:18:11.302Z,1.10
2018-09-12T04:20:39.531Z,1.30
2018-09-12T04:23:07.973Z,1.27
2018-09-12T04:25:36.177Z,1.57
2018-09-12T04:28:04.368Z,1.20
2018-09-12T04:30:32.574Z,1.10
2018-09-12T04:33:00.756Z,1.27
2018-09-12T04:35:28.948Z,1.10
2018-09-12T04:37:57.122Z,1.10
2018-09-12T04:40:25.426Z,2.43
2018-09-12T04:42:53.787Z,1.67
2018-09-12T04:45:22.301Z,2.20
2018-09-12T04:47:50.792Z,1.50
2018-09-12T04:50:18.962Z,1.40
2018-09-12T04:52:47.170Z,1.30
2018-09-12T04:55:15.338Z,1.73
2018-09-12T04:57:43.551Z,1.30
2018-09-12T05:00:12.386Z,2.50
2018-09-12T05:02:40.727Z,1.37
2018-09-12T05:05:08.908Z,1.63
2018-09-12T05:07:37.091Z,1.50
2018-09-12T05:10:05.503Z,1.60
2018-09-12T05:12:33.704Z,1.67
2018-09-12T05:15:01.881Z,1.80
2018-09-12T05:17:30.540Z,3.37
2018-09-12T05:19:58.715Z,1.30
2018-09-12T05:22:26.918Z,1.60
2018-09-12T05:24:55.115Z,1.70
2018-09-12T05:27:23.683Z,3.27
2018-09-12T05:29:52.293Z,1.83
2018-09-12T05:32:20.766Z,4.37
2018-09-12T05:34:49.017Z,2.57
2018-09-12T05:37:17.317Z,1.73
2018-09-12T05:39:45.491Z,1.70
2018-09-12T05:42:13.825Z,2.07
2018-09-12T05:44:42.000Z,1.97
2018-09-12T05:47:10.208Z,1.50
2018-09-12T05:49:38.422Z,3.40
2018-09-12T05:52:06.648Z,2.37
2018-09-12T05:54:35.081Z,1.93
2018-09-12T05:57:03.257Z,2.20
2018-09-12T05:59:31.540Z,3.47
2018-09-12T06:01:59.724Z,2.03
2018-09-12T06:04:28.003Z,2.37
2018-09-12T06:06:56.245Z,3.60
2018-09-12T06:09:24.462Z,2.73
2018-09-12T06:11:52.643Z,1.77
2018-09-12T06:14:20.865Z,2.33
2018-09-12T06:16:49.103Z,1.80
2018-09-12T06:19:17.334Z,1.80
2018-09-12T06:21:45.550Z,2.13
2018-09-12T06:24:13.774Z,1.80
2018-09-12T06:26:42.164Z,2.20
2018-09-12T06:29:10.698Z,2.00
2018-09-12T06:31:38.940Z,4.57
2018-09-12T06:34:07.179Z,1.90
2018-09-12T06:36:35.710Z,1.97
2018-09-12T06:39:05.551Z,1.93
2018-09-12T06:41:33.760Z,2.10
2018-09-12T06:44:02.034Z,2.20
2018-09-12T06:46:30.222Z,1.60
2018-09-12T06:48:58.453Z,2.00
2018-09-12T06:51:26.734Z,1.50
2018-09-12T06:53:54.963Z,2.10
2018-09-12T06:56:23.149Z,1.90
2018-09-12T06:58:51.348Z,1.90
2018-09-12T07:01:19.541Z,1.67
2018-09-12T07:03:48.108Z,1.87
2018-09-12T07:06:16.409Z,3.47
2018-09-12T07:08:44.619Z,2.60
2018-09-12T07:11:12.793Z,3.73
2018-09-12T07:13:41.009Z,2.23
2018-09-12T07:16:09.793Z,2.27
2018-09-12T07:18:38.004Z,2.53
2018-09-12T07:21:06.433Z,1.70
2018-09-12T07:23:34.641Z,2.17
2018-09-12T07:26:02.960Z,2.17
2018-09-12T07:28:31.144Z,4.47
2018-09-12T07:30:59.369Z,2.60
2018-09-12T07:33:27.566Z,4.13
2018-09-12T07:35:55.793Z,3.00
2018-09-12T07:38:24.004Z,2.40
2018-09-12T07:40:52.219Z,2.97
2018-09-12T07:43:20.419Z,3.20
2018-09-12T07:45:48.625Z,4.13
2018-09-12T07:48:16.845Z,4.77
2018-09-12T07:50:48.672Z,2.67
2018-09-12T07:53:17.433Z,3.20
2018-09-12T07:55:45.623Z,3.70
2018-09-12T07:58:14.724Z,4.30
2018-09-12T08:00:43.378Z,4.07
2018-09-12T08:03:11.549Z,3.37
2018-09-12T08:05:39.736Z,3.97
2018-09-12T08:08:07.973Z,3.20
2018-09-12T08:10:36.162Z,2.47
2018-09-12T08:13:04.689Z,2.33
2018-09-12T08:15:32.989Z,3.43
2018-09-12T08:18:01.329Z,3.90
2018-09-12T08:20:29.541Z,3.33
2018-09-12T08:22:57.736Z,2.73
2018-09-12T08:25:25.929Z,3.43
2018-09-12T08:27:54.200Z,4.20
2018-09-12T08:30:22.380Z,3.30
2018-09-12T08:32:50.754Z,2.93
2018-09-12T08:35:19.006Z,4.03
2018-09-12T08:37:47.213Z,2.70
2018-09-12T08:40:15.576Z,3.03
2018-09-12T08:42:44.449Z,4.80
2018-09-12T08:45:12.635Z,5.47
2018-09-12T08:47:41.077Z,4.63
2018-09-12T08:50:09.525Z,4.23
2018-09-12T08:52:37.810Z,5.37
2018-09-12T08:55:06.130Z,6.20
2018-09-12T08:57:34.537Z,3.53
2018-09-12T09:00:02.721Z,3.87
2018-09-12T09:02:30.944Z,3.50
2018-09-12T09:04:59.133Z,4.20
2018-09-12T09:07:27.392Z,5.30
2018-09-12T09:09:55.674Z,4.53
2018-09-12T09:12:24.285Z,4.37
2018-09-12T09:14:52.834Z,4.33
2018-09-12T09:17:21.284Z,4.10
2018-09-12T09:19:49.679Z,3.53
2018-09-12T09:22:18.173Z,5.07
2018-09-12T09:24:46.349Z,5.70
2018-09-12T09:27:14.557Z,5.20
2018-09-12T09:29:42.738Z,4.07
2018-09-12T09:32:10.981Z,4.73
2018-09-12T09:34:39.169Z,4.30
2018-09-12T09:37:07.404Z,5.37
2018-09-12T09:39:35.651Z,4.93
2018-09-12T09:42:03.847Z,7.57
2018-09-12T09:44:32.113Z,5.17
2018-09-12T09:47:00.581Z,5.33
2018-09-12T09:49:28.825Z,5.07
2018-09-12T09:51:57.000Z,4.70
2018-09-12T09:54:25.203Z,4.63
2018-09-12T09:56:53.433Z,5.63
2018-09-12T09:59:21.632Z,5.50
2018-09-12T10:01:55.210Z,5.07
2018-09-12T10:04:27.756Z,5.50
2018-09-12T10:06:58.396Z,5.13
2018-09-12T10:09:30.881Z,5.20
2018-09-12T10:11:59.818Z,4.50
2018-09-12T10:14:27.957Z,5.00
2018-09-12T10:16:56.145Z,5.80
2018-09-12T10:19:24.684Z,4.40
2018-09-12T10:21:53.206Z,4.43
2018-09-12T10:24:21.507Z,5.37
2018-09-12T10:26:49.652Z,4.87
2018-09-12T10:29:17.921Z,4.17
2018-09-12T10:31:46.377Z,5.70
2018-09-12T10:34:14.580Z,4.43
2018-09-12T10:36:43.122Z,4.67
2018-09-12T10:39:13.153Z,4.27
2018-09-12T10:41:41.857Z,6.60
2018-09-12T10:44:10.349Z,4.83
2018-09-12T10:46:38.578Z,6.23
2018-09-12T10:49:07.128Z,5.07
2018-09-12T10:51:35.376Z,5.67
2018-09-12T10:54:03.638Z,5.60
2018-09-12T10:56:31.953Z,5.10
2018-09-12T10:59:00.210Z,5.83
2018-09-12T11:01:28.348Z,7.07
2018-09-12T11:03:56.564Z,5.73
2018-09-12T11:06:24.818Z,5.13
2018-09-12T11:08:53.351Z,4.90
2018-09-12T11:11:21.582Z,5.10
2018-09-12T11:13:49.982Z,6.10
2018-09-12T11:16:18.166Z,4.53
2018-09-12T11:18:46.444Z,4.43
2018-09-12T11:21:14.669Z,4.80
2018-09-12T11:23:42.841Z,4.10
2018-09-12T11:26:11.053Z,4.67
2018-09-12T11:28:39.549Z,3.87
2018-09-12T11:31:07.912Z,4.37
2018-09-12T11:33:36.089Z,6.67
2018-09-12T11:36:04.296Z,5.70
2018-09-12T11:38:32.490Z,4.47
2018-09-12T11:41:00.723Z,5.00
2018-09-12T11:43:28.981Z,4.30
2018-09-12T11:45:57.357Z,5.47
2018-09-12T11:48:25.549Z,5.10
2018-09-12T11:50:53.790Z,5.10
2018-09-12T11:53:22.009Z,6.27
2018-09-12T11:55:50.403Z,7.83
2018-09-12T11:58:18.588Z,5.10
2018-09-12T12:00:46.781Z,5.13
2018-09-12T12:03:14.954Z,5.40
2018-09-12T12:05:43.159Z,4.97
2018-09-12T12:08:11.426Z,5.03
2018-09-12T12:10:39.856Z,5.80
2018-09-12T12:13:08.034Z,6.40
2018-09-12T12:15:36.326Z,6.23
2018-09-12T12:18:04.603Z,6.10
2018-09-12T12:20:32.910Z,7.33
2018-09-12T12:23:01.111Z,6.00
2018-09-12T12:25:29.655Z,6.27
2018-09-12T12:27:57.921Z,5.60
2018-09-12T12:30:26.119Z,5.23
2018-09-12T12:32:54.305Z,5.87
2018-09-12T12:35:22.640Z,5.53
2018-09-12T12:37:51.654Z,6.37
2018-09-12T12:40:19.911Z,6.70
2018-09-12T12:42:48.148Z,7.07
2018-09-12T12:45:16.611Z,6.00
2018-09-12T12:47:45.877Z,6.10
2018-09-12T12:50:14.106Z,5.63
2018-09-12T12:52:42.283Z,5.27
2018-09-12T12:55:10.533Z,7.13
2018-09-12T12:57:41.034Z,5.07
2018-09-12T13:00:09.824Z,5.70
2018-09-12T13:02:38.013Z,4.70
2018-09-12T13:05:07.917Z,5.70
2018-09-12T13:07:36.235Z,4.83
2018-09-12T13:10:06.881Z,4.97
2018-09-12T13:12:35.089Z,5.33
2018-09-12T13:15:03.292Z,5.17
2018-09-12T13:17:31.656Z,5.90
2018-09-12T13:20:00.068Z,3.90
2018-09-12T13:22:28.557Z,4.73
2018-09-12T13:24:56.798Z,6.33
2018-09-12T13:27:25.075Z,4.70
2018-09-12T13:29:53.164Z,4.40
2018-09-12T13:32:21.393Z,4.53
2018-09-12T13:34:49.726Z,5.77
2018-09-12T13:37:18.484Z,4.63
2018-09-12T13:39:46.729Z,5.43
2018-09-12T13:42:15.007Z,5.87
2018-09-12T13:44:43.670Z,4.17
2018-09-12T13:47:12.200Z,4.03
2018-09-12T13:49:40.520Z,5.60
2018-09-12T13:52:08.716Z,4.07
2018-09-12T13:54:36.957Z,4.40
2018-09-12T13:57:05.116Z,4.40
2018-09-12T13:59:33.510Z,5.53
2018-09-12T14:02:02.090Z,5.63
2018-09-12T14:04:30.285Z,6.10
2018-09-12T14:06:58.654Z,5.50
2018-09-12T14:09:27.091Z,4.70
2018-09-12T14:11:55.406Z,8.73
2018-09-12T14:14:23.599Z,5.70
2018-09-12T14:16:51.852Z,7.43
2018-09-12T14:19:20.294Z,6.50
2018-09-12T14:21:53.337Z,7.60
2018-09-12T14:24:21.515Z,6.13
2018-09-12T14:26:49.740Z,7.37
2018-09-12T14:29:18.056Z,6.93
2018-09-12T14:31:47.202Z,7.17
2018-09-12T14:34:15.549Z,8.53
2018-09-12T14:36:43.757Z,9.10
2018-09-12T14:39:12.098Z,8.77
2018-09-12T14:41:40.493Z,9.63
2018-09-12T14:44:08.683Z,10.77
2018-09-12T14:46:36.918Z,9.57
2018-09-12T14:49:05.556Z,9.30
2018-09-12T14:51:33.747Z,10.00
2018-09-12T14:54:01.941Z,8.27
2018-09-12T14:56:30.140Z,10.37
2018-09-12T14:58:58.343Z,8.77
2018-09-12T15:01:26.537Z,9.17
2018-09-12T15:03:55.052Z,9.33
2018-09-12T15:06:23.462Z,11.37
2018-09-12T15:08:51.672Z,11.13
2018-09-12T15:11:19.913Z,9.93
2018-09-12T15:13:49.085Z,10.10
2018-09-12T15:16:24.463Z,13.73
2018-09-12T15:18:59.085Z,8.20
2018-09-12T15:21:36.159Z,8.27
2018-09-12T15:24:09.597Z,10.10
2018-09-12T15:26:39.290Z,10.67
2018-09-12T15:29:07.784Z,11.07
2018-09-12T15:31:35.983Z,8.30
2018-09-12T15:34:04.203Z,9.67
2018-09-12T15:36:32.452Z,8.53
2018-09-12T15:39:00.849Z,9.00
2018-09-12T15:41:29.113Z,9.27
2018-09-12T15:43:57.231Z,9.03
2018-09-12T15:46:26.116Z,9.20
2018-09-12T15:48:54.558Z,7.87
2018-09-12T15:51:22.749Z,10.57
2018-09-12T15:53:50.959Z,10.93
2018-09-12T15:56:19.176Z,9.43
2018-09-12T15:58:47.744Z,12.73
2018-09-12T16:01:16.153Z,13.93
2018-09-12T16:03:44.629Z,10.93
2018-09-12T16:06:12.813Z,8.83
2018-09-12T16:08:41.018Z,8.03
2018-09-12T16:11:10.292Z,7.50
2018-09-12T16:13:38.740Z,6.47
2018-09-12T16:16:07.057Z,6.00
2018-09-12T16:18:36.541Z,5.73
2018-09-12T16:21:04.812Z,4.77
2018-09-12T16:23:33.812Z,5.13
2018-09-12T16:26:02.195Z,4.43
2018-09-12T16:28:30.425Z,5.13
2018-09-12T16:30:59.491Z,5.03
2018-09-12T16:33:27.771Z,3.50
2018-09-12T16:35:56.117Z,4.00
2018-09-12T16:38:24.317Z,3.93
2018-09-12T16:40:53.452Z,5.47
2018-09-12T16:43:22.306Z,4.47
2018-09-12T16:45:50.516Z,5.37
2018-09-12T16:48:18.697Z,4.40
2018-09-12T16:50:46.951Z,4.83
2018-09-12T16:53:15.073Z,7.53
2018-09-12T16:55:43.245Z,4.53
2018-09-12T16:58:12.482Z,4.33
2018-09-12T17:00:40.665Z,4.00
2018-09-12T17:03:09.504Z,4.33
2018-09-12T17:05:37.776Z,4.00
2018-09-12T17:08:06.086Z,3.40
2018-09-12T17:10:34.823Z,3.10
2018-09-12T17:13:03.313Z,4.83
2018-09-12T17:15:31.520Z,2.77
2018-09-12T17:18:00.464Z,2.77
2018-09-12T17:20:28.695Z,2.93
2018-09-12T17:22:56.987Z,2.10
2018-09-12T17:25:25.177Z,2.80
2018-09-12T17:27:53.765Z,2.03
2018-09-12T17:30:21.934Z,2.10
2018-09-12T17:32:50.287Z,1.70
2018-09-12T17:35:18.501Z,1.83
2018-09-12T17:37:46.769Z,2.23
2018-09-12T17:40:14.945Z,1.40
2018-09-12T17:42:43.140Z,1.40
2018-09-12T17:45:11.316Z,1.90
2018-09-12T17:47:39.490Z,1.67
2018-09-12T17:50:07.683Z,1.57
2018-09-12T17:52:35.872Z,1.97
2018-09-12T17:55:04.241Z,2.90
2018-09-12T17:57:32.593Z,1.30
2018-09-12T18:00:00.937Z,1.50
2018-09-12T18:02:29.123Z,1.70
2018-09-12T18:04:57.341Z,1.80
2018-09-12T18:07:25.529Z,1.57
2018-09-12T18:09:53.853Z,2.53
2018-09-12T18:12:22.312Z,1.70
2018-09-12T18:14:50.523Z,1.67
2018-09-12T18:17:18.898Z,1.70
2018-09-12T18:19:47.124Z,1.50
2018-09-12T18:22:15.333Z,1.70
2018-09-12T18:24:45.268Z,2.03
2018-09-12T18:27:15.982Z,1.73
2018-09-12T18:29:45.357Z,2.37
2018-09-12T18:32:14.877Z,1.50
2018-09-12T18:34:44.069Z,2.00
2018-09-12T18:37:13.192Z,1.70
2018-09-12T18:39:43.106Z,2.37
2018-09-12T18:42:12.077Z,2.40
2018-09-12T18:44:41.343Z,2.30
2018-09-12T18:47:10.899Z,2.57
2018-09-12T18:49:39.145Z,2.47
2018-09-12T18:52:07.340Z,2.10
2018-09-12T18:54:36.198Z,2.57
2018-09-12T18:57:05.356Z,3.00
2018-09-12T18:59:34.560Z,2.70
2018-09-12T19:02:05.131Z,3.80
2018-09-12T19:04:33.392Z,3.33
2018-09-12T19:07:02.577Z,3.40
2018-09-12T19:09:30.848Z,4.37
2018-09-12T19:11:59.040Z,4.23
2018-09-12T19:14:27.237Z,3.77
2018-09-12T19:16:55.422Z,5.83
2018-09-12T19:19:23.640Z,4.17
2018-09-12T19:21:51.871Z,4.87
2018-09-12T19:24:20.237Z,6.07
2018-09-12T19:26:48.452Z,5.60
2018-09-12T19:29:16.705Z,5.97
2018-09-12T19:31:44.883Z,4.40
2018-09-12T19:34:13.230Z,4.73
2018-09-12T19:36:41.421Z,3.47
2018-09-12T19:39:10.161Z,4.10
2018-09-12T19:41:39.204Z,4.00
2018-09-12T19:44:07.420Z,5.07
2018-09-12T19:46:35.673Z,5.47
2018-09-12T19:49:04.353Z,8.13
2018-09-12T19:51:32.687Z,8.90
2018-09-12T19:54:00.910Z,7.53
2018-09-12T19:56:29.098Z,9.13
2018-09-12T19:58:57.311Z,11.13
2018-09-12T20:01:25.487Z,7.80
2018-09-12T20:03:53.956Z,12.77
2018-09-12T20:06:22.244Z,13.90
2018-09-12T20:08:50.515Z,10.97
2018-09-12T20:11:18.868Z,16.03
2018-09-12T20:13:47.087Z,15.63
2018-09-12T20:16:15.321Z,16.07
2018-09-12T20:18:43.721Z,16.80
2018-09-12T20:21:11.936Z,15.80
2018-09-12T20:23:40.437Z,16.87
2018-09-12T20:26:08.645Z,19.17
2018-09-12T20:28:40.936Z,16.00
2018-09-12T20:31:09.496Z,18.03
2018-09-12T20:33:37.936Z,14.53
2018-09-12T20:36:06.939Z,15.20
2018-09-12T20:38:36.583Z,18.63
2018-09-12T20:41:05.107Z,13.83
2018-09-12T20:43:33.555Z,14.37
2018-09-12T20:46:02.863Z,13.30
2018-09-12T20:48:31.100Z,17.23
2018-09-12T20:50:59.504Z,16.97
2018-09-12T20:53:27.860Z,20.13
2018-09-12T20:55:56.081Z,15.37
2018-09-12T20:58:24.261Z,18.43
2018-09-12T21:00:52.474Z,17.80
2018-09-12T21:03:20.929Z,14.40
2018-09-12T21:05:49.157Z,16.90
2018-09-12T21:08:17.396Z,15.57
2018-09-12T21:10:45.707Z,17.20
2018-09-12T21:13:13.821Z,16.43
2018-09-12T21:15:46.621Z,14.70
2018-09-12T21:18:15.020Z,20.70
2018-09-12T21:20:43.128Z,16.63
2018-09-12T21:23:11.307Z,14.23
2018-09-12T21:25:40.645Z,15.53
2018-09-12T21:28:08.918Z,20.03
2018-09-12T21:30:37.120Z,14.90
2018-09-12T21:33:05.410Z,14.23
2018-09-12T21:35:33.624Z,11.87
2018-09-12T21:38:01.928Z,10.73
2018-09-12T21:40:30.135Z,12.50
2018-09-12T21:42:58.321Z,11.20
2018-09-12T21:45:26.507Z,18.40
2018-09-12T21:47:55.295Z,14.23
2018-09-12T21:50:23.597Z,16.23
2018-09-12T21:52:51.900Z,13.57
2018-09-12T21:55:20.080Z,13.90
2018-09-12T21:57:48.280Z,15.73
2018-09-12T22:00:16.487Z,14.87
2018-09-12T22:02:44.756Z,13.07
2018-09-12T22:05:12.957Z,12.47
2018-09-12T22:07:41.165Z,11.87
2018-09-12T22:10:09.733Z,14.40
2018-09-12T22:12:38.138Z,14.70
2018-09-12T22:15:06.328Z,14.50
2018-09-12T22:17:34.540Z,14.67
2018-09-12T22:20:02.736Z,14.40
2018-09-12T22:22:30.971Z,13.70
2018-09-12T22:24:59.149Z,13.70
2018-09-12T22:27:27.377Z,12.73
2018-09-12T22:29:55.567Z,15.20
2018-09-12T22:32:23.772Z,15.97
2018-09-12T22:34:51.968Z,14.20
2018-09-12T22:37:20.185Z,16.07
2018-09-12T22:39:48.360Z,14.03
2018-09-12T22:42:16.601Z,12.07
2018-09-12T22:44:44.781Z,13.10
2018-09-12T22:47:12.989Z,13.07
2018-09-12T22:49:41.159Z,13.30
2018-09-12T22:52:09.417Z,15.70
2018-09-12T22:54:37.617Z,13.63
2018-09-12T22:57:05.929Z,11.03
2018-09-12T22:59:34.104Z,12.77
2018-09-12T23:02:02.300Z,13.60
2018-09-12T23:11:27.512Z,13.90
2018-09-12T23:13:55.734Z,13.53
2018-09-12T23:16:23.945Z,15.37
2018-09-12T23:18:52.149Z,14.30
2018-09-12T23:21:20.377Z,12.63
2018-09-12T23:23:48.576Z,13.43
2018-09-12T23:26:16.795Z,13.73
2018-09-12T23:28:45.061Z,15.83
2018-09-12T23:31:13.242Z,16.93
2018-09-12T23:33:41.450Z,11.80
2018-09-12T23:36:09.620Z,12.17
2018-09-12T23:38:37.856Z,14.93
2018-09-12T23:41:06.241Z,13.53
2018-09-12T23:43:34.520Z,14.43
2018-09-12T23:46:02.715Z,12.60
2018-09-12T23:48:30.941Z,13.13
2018-09-12T23:50:59.117Z,12.60
2018-09-12T23:53:27.308Z,13.70
2018-09-12T23:55:55.482Z,10.37
2018-09-12T23:58:23.712Z,16.33
